createdAt,value
2022-12-15T00:00:08.146Z,32.03
2022-12-15T00:02:53.717Z,38.13
2022-12-15T00:05:42.644Z,37.43
2022-12-15T00:08:29.132Z,46.07
2022-12-15T00:11:15.210Z,36.27
2022-12-15T00:14:00.534Z,33.03
2022-12-15T00:16:45.761Z,44.47
2022-12-15T00:19:31.195Z,33.20
2022-12-15T00:22:16.401Z,43.17
2022-12-15T00:25:02.044Z,34.97
2022-12-15T00:27:47.526Z,36.93
2022-12-15T00:30:34.076Z,32.00
2022-12-15T00:33:19.856Z,38.37
2022-12-15T00:36:05.978Z,31.57
2022-12-15T00:38:47.405Z,36.47
2022-12-15T00:41:17.717Z,37.70
2022-12-15T00:43:45.855Z,40.27
2022-12-15T00:46:32.167Z,34.97
2022-12-15T00:48:59.137Z,32.67
2022-12-15T00:51:46.782Z,33.27
2022-12-15T00:54:32.668Z,31.47
2022-12-15T00:57:18.144Z,30.23
2022-12-15T01:00:03.759Z,37.83
2022-12-15T01:02:50.030Z,35.93
2022-12-15T01:05:36.939Z,41.03
2022-12-15T01:08:22.635Z,39.43
2022-12-15T01:11:08.370Z,35.47
2022-12-15T01:13:53.747Z,37.67
2022-12-15T01:16:42.231Z,32.03
2022-12-15T01:19:29.858Z,35.33
2022-12-15T01:21:56.825Z,31.10
2022-12-15T01:24:24.826Z,32.30
2022-12-15T01:26:51.633Z,37.27
2022-12-15T01:29:18.493Z,36.50
2022-12-15T01:31:49.675Z,31.93
2022-12-15T01:34:20.383Z,35.43
2022-12-15T01:36:47.263Z,35.20
2022-12-15T01:39:14.041Z,33.30
2022-12-15T01:41:41.077Z,34.33
2022-12-15T01:44:23.195Z,32.33
2022-12-15T01:46:54.780Z,39.77
2022-12-15T01:49:24.052Z,32.43
2022-12-15T01:51:59.140Z,40.33
2022-12-15T01:54:48.958Z,31.90
2022-12-15T01:57:25.628Z,43.03
2022-12-15T01:59:55.751Z,33.57
2022-12-15T02:02:26.313Z,39.80
2022-12-15T02:04:56.596Z,32.40
2022-12-15T02:07:24.058Z,35.00
2022-12-15T02:09:54.851Z,34.23
2022-12-15T02:12:28.935Z,34.90
2022-12-15T02:15:14.483Z,38.20
2022-12-15T02:17:45.972Z,35.83
2022-12-15T02:20:40.155Z,36.53
2022-12-15T02:23:18.894Z,35.30
2022-12-15T02:26:23.355Z,35.93
2022-12-15T02:29:18.104Z,34.87
2022-12-15T02:31:54.563Z,32.07
2022-12-15T02:34:33.219Z,42.07
2022-12-15T02:37:06.500Z,45.87
2022-12-15T02:39:33.535Z,36.03
2022-12-15T02:42:00.482Z,35.10
2022-12-15T02:44:35.431Z,34.70
2022-12-15T02:47:23.223Z,36.63
2022-12-15T02:50:01.237Z,35.53
2022-12-15T02:53:05.746Z,32.23
2022-12-15T02:55:57.575Z,41.07
2022-12-15T02:58:45.846Z,34.63
2022-12-15T03:01:20.097Z,37.03
2022-12-15T03:03:49.804Z,31.43
2022-12-15T03:06:16.911Z,36.97
2022-12-15T03:08:43.743Z,38.87
2022-12-15T03:11:10.570Z,44.83
2022-12-15T03:13:37.556Z,37.40
2022-12-15T03:16:04.675Z,34.17
2022-12-15T03:18:35.678Z,46.23
2022-12-15T03:21:02.562Z,39.87
2022-12-15T03:23:30.083Z,45.63
2022-12-15T03:25:57.280Z,39.63
2022-12-15T03:28:24.426Z,34.10
2022-12-15T03:30:54.043Z,38.53
2022-12-15T03:33:23.669Z,38.83
2022-12-15T03:35:53.631Z,39.43
2022-12-15T03:38:23.945Z,38.23
2022-12-15T03:40:53.560Z,47.90
2022-12-15T03:43:23.505Z,36.83
2022-12-15T03:45:50.742Z,37.53
2022-12-15T03:48:23.348Z,36.53
2022-12-15T03:50:53.273Z,40.30
2022-12-15T03:53:22.863Z,39.07
2022-12-15T03:55:49.773Z,33.30
2022-12-15T03:58:16.659Z,35.50
2022-12-15T04:00:43.418Z,44.27
2022-12-15T04:03:11.715Z,44.50
2022-12-15T04:05:39.138Z,42.03
2022-12-15T04:08:06.425Z,44.50
2022-12-15T04:10:35.390Z,38.37
2022-12-15T04:13:02.299Z,39.03
2022-12-15T04:15:29.483Z,34.37
2022-12-15T04:17:56.422Z,40.73
2022-12-15T04:20:23.286Z,35.30
2022-12-15T04:22:51.012Z,42.27
2022-12-15T04:25:40.126Z,33.80
2022-12-15T04:28:26.483Z,36.23
2022-12-15T04:31:36.476Z,45.40
2022-12-15T04:34:26.826Z,54.43
2022-12-15T04:37:13.373Z,42.90
2022-12-15T04:40:04.506Z,41.27
2022-12-15T04:42:52.332Z,44.17
2022-12-15T04:45:45.204Z,42.67
2022-12-15T04:48:31.874Z,41.77
2022-12-15T04:51:17.188Z,37.13
2022-12-15T04:54:03.506Z,43.53
2022-12-15T04:56:50.641Z,45.20
2022-12-15T04:59:36.062Z,48.67
2022-12-15T05:02:22.006Z,41.07
2022-12-15T05:05:08.060Z,43.90
2022-12-15T05:07:54.251Z,46.43
2022-12-15T05:10:42.579Z,42.83
2022-12-15T05:13:28.654Z,47.40
2022-12-15T05:16:14.528Z,48.77
2022-12-15T05:19:00.205Z,43.63
2022-12-15T05:21:45.657Z,51.87
2022-12-15T05:24:30.840Z,44.30
2022-12-15T05:27:18.090Z,45.60
2022-12-15T05:30:05.281Z,52.90
2022-12-15T05:32:33.218Z,51.43
2022-12-15T05:35:01.288Z,46.43
2022-12-15T05:37:29.025Z,50.77
2022-12-15T05:39:55.824Z,44.60
2022-12-15T05:42:22.741Z,53.07
2022-12-15T05:44:49.860Z,51.53
2022-12-15T05:47:25.530Z,51.70
2022-12-15T05:49:52.418Z,45.70
2022-12-15T05:52:19.480Z,48.93
2022-12-15T05:54:46.659Z,52.97
2022-12-15T05:57:13.809Z,48.17
2022-12-15T05:59:41.108Z,52.47
2022-12-15T06:02:08.007Z,62.50
2022-12-15T06:04:35.115Z,48.23
2022-12-15T06:07:02.221Z,54.97
2022-12-15T06:09:29.158Z,58.70
2022-12-15T06:11:55.965Z,64.43
2022-12-15T06:14:22.779Z,63.07
2022-12-15T06:16:50.220Z,69.90
2022-12-15T06:19:18.152Z,58.70
2022-12-15T06:21:44.906Z,63.37
2022-12-15T06:24:11.942Z,82.33
2022-12-15T06:26:40.333Z,71.27
2022-12-15T06:29:10.190Z,60.00
2022-12-15T06:31:38.133Z,71.93
2022-12-15T06:34:07.093Z,75.50
2022-12-15T06:36:34.386Z,66.23
2022-12-15T06:39:04.502Z,79.87
2022-12-15T06:41:32.337Z,75.70
2022-12-15T06:44:00.506Z,73.73
2022-12-15T06:46:29.515Z,71.73
2022-12-15T06:48:56.873Z,81.43
2022-12-15T06:51:24.880Z,76.00
2022-12-15T06:53:55.602Z,78.83
2022-12-15T06:56:34.788Z,87.47
2022-12-15T06:59:03.703Z,80.53
2022-12-15T07:01:32.261Z,88.80
2022-12-15T07:04:01.559Z,86.97
2022-12-15T07:06:36.244Z,107.77
2022-12-15T07:09:04.301Z,91.97
2022-12-15T07:11:31.265Z,107.67
2022-12-15T07:13:58.196Z,89.30
2022-12-15T07:16:25.255Z,91.87
2022-12-15T07:18:52.348Z,117.93
2022-12-15T07:21:19.936Z,111.03
2022-12-15T07:23:54.631Z,89.00
2022-12-15T07:26:22.385Z,86.13
2022-12-15T07:28:51.531Z,88.33
2022-12-15T07:31:18.566Z,84.37
2022-12-15T07:33:45.591Z,98.63
2022-12-15T07:36:13.188Z,103.77
2022-12-15T07:38:40.138Z,80.17
2022-12-15T07:41:09.513Z,97.97
2022-12-15T07:43:37.434Z,100.60
2022-12-15T07:46:05.687Z,96.20
2022-12-15T07:48:33.040Z,133.40
2022-12-15T07:51:10.849Z,105.87
2022-12-15T07:53:42.458Z,88.53
2022-12-15T07:56:10.422Z,88.73
2022-12-15T07:58:38.645Z,81.17
2022-12-15T08:01:08.288Z,95.20
2022-12-15T08:03:37.132Z,82.77
2022-12-15T08:06:10.212Z,98.33
2022-12-15T08:08:37.341Z,83.43
2022-12-15T08:11:05.540Z,81.53
2022-12-15T08:16:23.458Z,69.10
2022-12-15T08:18:53.864Z,76.07
2022-12-15T08:21:23.470Z,66.83
2022-12-15T08:23:53.279Z,65.07
2022-12-15T08:26:25.036Z,65.20
2022-12-15T08:28:55.209Z,71.73
2022-12-15T08:31:24.290Z,69.97
2022-12-15T08:33:54.994Z,77.47
2022-12-15T08:36:21.828Z,63.97
2022-12-15T08:38:48.826Z,64.57
2022-12-15T08:41:16.938Z,63.70
2022-12-15T08:43:48.552Z,65.87
2022-12-15T08:46:25.777Z,62.87
2022-12-15T08:48:53.769Z,67.37
2022-12-15T08:51:22.294Z,61.47
2022-12-15T08:53:51.491Z,77.10
2022-12-15T08:56:23.204Z,63.33
2022-12-15T08:58:59.970Z,72.87
2022-12-15T09:01:29.062Z,72.30
2022-12-15T09:03:57.405Z,59.97
2022-12-15T09:06:27.363Z,74.07
2022-12-15T09:08:56.652Z,61.17
2022-12-15T09:11:25.264Z,61.77
2022-12-15T09:13:52.698Z,69.97
2022-12-15T09:16:20.985Z,65.07
2022-12-15T09:18:51.087Z,68.33
2022-12-15T09:21:21.828Z,65.37
2022-12-15T09:23:51.799Z,71.93
2022-12-15T09:26:21.148Z,58.67
2022-12-15T09:28:50.204Z,62.90
2022-12-15T09:31:22.808Z,63.60
2022-12-15T09:33:53.117Z,57.00
2022-12-15T09:36:23.154Z,67.07
2022-12-15T09:38:51.124Z,78.17
2022-12-15T09:41:33.347Z,78.90
2022-12-15T09:44:20.775Z,67.67
2022-12-15T09:47:38.910Z,84.57
2022-12-15T09:50:10.736Z,82.53
2022-12-15T09:52:51.239Z,87.70
2022-12-15T09:55:24.668Z,84.80
2022-12-15T09:57:55.769Z,87.80
2022-12-15T10:00:30.279Z,91.60
2022-12-15T10:03:25.000Z,82.17
2022-12-15T10:06:22.085Z,91.80
2022-12-15T10:08:54.009Z,90.57
2022-12-15T10:11:50.978Z,86.20
2022-12-15T10:14:33.086Z,93.37
2022-12-15T10:17:24.527Z,93.10
2022-12-15T10:20:00.424Z,88.17
2022-12-15T10:22:32.315Z,93.50
2022-12-15T10:25:14.387Z,80.17
2022-12-15T10:28:02.301Z,96.27
2022-12-15T10:30:29.754Z,86.53
2022-12-15T10:32:56.556Z,85.90
2022-12-15T10:35:28.738Z,87.40
2022-12-15T10:38:00.589Z,78.57
2022-12-15T10:40:44.854Z,84.33
2022-12-15T10:43:37.554Z,90.40
2022-12-15T10:46:15.745Z,80.53
2022-12-15T10:48:48.793Z,85.50
2022-12-15T10:51:21.108Z,93.43
2022-12-15T10:53:51.253Z,98.63
2022-12-15T10:56:25.934Z,89.40
2022-12-15T10:58:59.051Z,92.90
2022-12-15T11:01:32.421Z,86.13
2022-12-15T11:04:00.006Z,82.70
2022-12-15T11:06:30.468Z,88.63
2022-12-15T11:09:08.430Z,92.47
2022-12-15T11:12:06.051Z,79.50
2022-12-15T11:14:51.796Z,82.33
2022-12-15T11:17:21.694Z,91.90
2022-12-15T11:19:49.570Z,92.23
2022-12-15T11:22:35.588Z,89.90
2022-12-15T11:25:20.433Z,98.70
2022-12-15T11:27:51.031Z,94.03
2022-12-15T11:30:20.946Z,94.47
2022-12-15T11:32:53.628Z,92.27
2022-12-15T11:35:43.904Z,85.67
2022-12-15T11:38:32.788Z,95.47
2022-12-15T11:41:11.062Z,93.87
2022-12-15T11:43:59.783Z,98.83
2022-12-15T11:46:45.378Z,93.63
2022-12-15T11:49:40.779Z,101.50
2022-12-15T11:52:23.559Z,88.93
2022-12-15T11:55:02.456Z,99.60
2022-12-15T11:57:45.741Z,91.30
2022-12-15T12:00:21.701Z,98.87
2022-12-15T12:03:07.388Z,92.10
2022-12-15T12:05:46.840Z,89.87
2022-12-15T12:08:32.748Z,91.70
2022-12-15T12:11:14.144Z,91.17
2022-12-15T12:14:06.697Z,89.83
2022-12-15T12:16:41.356Z,88.27
2022-12-15T12:19:18.726Z,94.83
2022-12-15T12:21:50.967Z,102.13
2022-12-15T12:24:24.821Z,88.83
2022-12-15T12:27:11.654Z,90.23
2022-12-15T12:32:59.901Z,99.03
2022-12-15T12:35:46.899Z,84.07
2022-12-15T12:38:21.609Z,94.63
2022-12-15T12:41:29.565Z,99.07
2022-12-15T12:44:00.904Z,89.40
2022-12-15T12:46:39.689Z,90.23
2022-12-15T12:49:45.522Z,87.17
2022-12-15T12:52:30.124Z,81.70
2022-12-15T12:55:26.534Z,82.97
2022-12-15T12:57:54.554Z,81.47
2022-12-15T13:00:32.612Z,85.00
2022-12-15T13:03:12.192Z,83.57
2022-12-15T13:05:41.421Z,88.40
2022-12-15T13:08:08.835Z,94.50
2022-12-15T13:10:38.448Z,84.23
2022-12-15T13:13:42.121Z,87.13
2022-12-15T13:16:11.892Z,98.77
2022-12-15T13:19:04.688Z,94.17
2022-12-15T13:21:44.124Z,86.73
2022-12-15T13:24:41.419Z,86.40
2022-12-15T13:27:14.240Z,89.20
2022-12-15T13:30:01.212Z,91.90
2022-12-15T13:32:45.549Z,87.80
2022-12-15T13:35:12.588Z,91.23
2022-12-15T13:38:03.184Z,87.87
2022-12-15T13:40:51.706Z,94.27
2022-12-15T13:43:43.718Z,84.83
2022-12-15T13:46:20.800Z,93.97
2022-12-15T13:48:54.046Z,97.00
2022-12-15T13:51:33.057Z,87.63
2022-12-15T13:54:10.001Z,86.70
2022-12-15T13:57:15.559Z,94.13
2022-12-15T13:59:54.452Z,96.00
2022-12-15T14:02:31.022Z,87.77
2022-12-15T14:05:29.402Z,94.33
2022-12-15T14:08:02.393Z,86.20
2022-12-15T14:10:41.764Z,89.20
2022-12-15T14:13:16.161Z,93.43
2022-12-15T14:15:47.505Z,98.87
2022-12-15T14:18:33.325Z,92.90
2022-12-15T14:21:01.918Z,90.57
2022-12-15T14:24:04.056Z,94.00
2022-12-15T14:26:31.709Z,84.47
2022-12-15T14:29:04.320Z,99.47
2022-12-15T14:31:31.739Z,91.83
2022-12-15T14:34:26.830Z,90.27
2022-12-15T14:36:58.756Z,94.13
2022-12-15T14:39:46.192Z,84.27
2022-12-15T14:42:26.677Z,89.37
2022-12-15T14:44:57.683Z,97.00
2022-12-15T14:47:31.948Z,85.90
2022-12-15T14:50:02.056Z,88.23
2022-12-15T14:52:39.996Z,87.87
2022-12-15T14:55:36.069Z,88.70
2022-12-15T14:58:21.972Z,96.43
2022-12-15T15:00:51.459Z,88.10
2022-12-15T15:03:11.381Z,97.43
2022-12-15T15:05:55.142Z,93.37
2022-12-15T15:08:33.264Z,93.47
2022-12-15T15:11:29.371Z,87.50
2022-12-15T15:13:59.310Z,90.43
2022-12-15T15:16:27.428Z,86.23
2022-12-15T15:18:57.252Z,83.93
2022-12-15T15:21:29.882Z,90.07
2022-12-15T15:23:59.839Z,87.50
2022-12-15T15:26:27.590Z,89.10
2022-12-15T15:28:55.481Z,99.77
2022-12-15T15:31:26.081Z,88.47
2022-12-15T15:33:53.377Z,91.67
2022-12-15T15:36:22.269Z,91.13
2022-12-15T15:38:51.532Z,88.13
2022-12-15T15:41:21.092Z,87.70
2022-12-15T15:43:48.289Z,95.80
2022-12-15T15:46:18.797Z,91.47
2022-12-15T15:48:56.142Z,91.20
2022-12-15T15:51:25.931Z,94.03
2022-12-15T15:53:55.093Z,86.97
2022-12-15T15:56:22.090Z,93.23
2022-12-15T15:58:49.123Z,89.30
2022-12-15T16:01:16.054Z,89.40
2022-12-15T16:03:43.026Z,90.17
2022-12-15T16:06:20.803Z,86.27
2022-12-15T16:08:54.048Z,94.47
2022-12-15T16:11:25.770Z,94.93
2022-12-15T16:13:52.815Z,86.30
2022-12-15T16:16:22.801Z,94.23
2022-12-15T16:18:53.337Z,100.27
2022-12-15T16:21:25.453Z,112.90
2022-12-15T16:23:54.045Z,97.10
2022-12-15T16:26:32.926Z,92.23
2022-12-15T16:29:00.505Z,90.23
2022-12-15T16:31:41.463Z,87.93
2022-12-15T16:34:09.175Z,103.17
2022-12-15T16:36:36.401Z,91.57
2022-12-15T16:39:10.645Z,94.03
2022-12-15T16:41:37.930Z,96.30
2022-12-15T16:44:11.031Z,106.50
2022-12-15T16:46:37.997Z,93.83
2022-12-15T16:49:05.276Z,103.67
2022-12-15T16:51:39.316Z,107.20
2022-12-15T16:54:07.241Z,98.03
2022-12-15T16:56:34.122Z,101.23
2022-12-15T16:59:31.245Z,103.63
2022-12-15T17:01:48.352Z,96.03
2022-12-15T17:04:16.678Z,93.03
2022-12-15T17:06:43.580Z,101.70
2022-12-15T17:09:17.714Z,104.30
2022-12-15T17:11:44.686Z,100.87
2022-12-15T17:14:11.780Z,96.13
2022-12-15T17:16:38.574Z,98.23
2022-12-15T17:19:05.452Z,105.03
2022-12-15T17:22:01.053Z,96.27
2022-12-15T17:24:28.181Z,96.67
2022-12-15T17:26:55.815Z,96.43
2022-12-15T17:29:25.352Z,92.33
2022-12-15T17:31:52.382Z,106.93
2022-12-15T17:34:30.490Z,92.73
2022-12-15T17:36:59.678Z,106.93
2022-12-15T17:39:27.771Z,97.47
2022-12-15T17:42:02.850Z,95.50
2022-12-15T17:44:37.883Z,104.20
2022-12-15T17:47:07.478Z,90.33
2022-12-15T17:49:37.732Z,96.90
2022-12-15T17:52:29.447Z,105.60
2022-12-15T17:54:57.345Z,94.20
2022-12-15T17:57:24.695Z,98.43
2022-12-15T17:59:51.873Z,98.73
2022-12-15T18:02:21.565Z,99.60
2022-12-15T18:04:48.580Z,91.33
2022-12-15T18:07:22.934Z,103.00
2022-12-15T18:09:53.467Z,107.07
2022-12-15T18:12:24.028Z,97.50
2022-12-15T18:14:54.984Z,93.13
2022-12-15T18:17:25.058Z,90.77
2022-12-15T18:19:52.050Z,102.00
2022-12-15T18:22:25.191Z,95.03
2022-12-15T18:24:53.785Z,96.60
2022-12-15T18:27:26.947Z,99.97
2022-12-15T18:29:54.319Z,87.57
2022-12-15T18:32:26.773Z,93.73
2022-12-15T18:34:54.696Z,93.57
2022-12-15T18:37:23.902Z,89.60
2022-12-15T18:39:51.379Z,87.17
2022-12-15T18:42:21.131Z,86.53
2022-12-15T18:45:00.294Z,83.27
2022-12-15T18:47:27.825Z,87.90
2022-12-15T18:49:54.938Z,87.97
2022-12-15T18:52:27.658Z,88.77
2022-12-15T18:54:55.690Z,85.47
2022-12-15T18:57:28.264Z,84.17
2022-12-15T19:00:01.806Z,76.80
2022-12-15T19:02:29.108Z,79.53
2022-12-15T19:04:56.314Z,78.13
2022-12-15T19:07:23.658Z,80.93
2022-12-15T19:09:50.957Z,89.17
2022-12-15T19:12:18.150Z,85.40
2022-12-15T19:14:51.322Z,87.57
2022-12-15T19:17:40.120Z,85.60
2022-12-15T19:20:36.078Z,86.07
2022-12-15T19:23:03.488Z,81.23
2022-12-15T19:25:31.511Z,91.17
2022-12-15T19:28:00.330Z,79.60
2022-12-15T19:30:41.585Z,84.40
2022-12-15T19:33:09.997Z,79.57
2022-12-15T19:35:37.935Z,82.40
2022-12-15T19:38:06.382Z,84.50
2022-12-15T19:40:36.040Z,80.17
2022-12-15T19:43:04.436Z,81.03
2022-12-15T19:45:32.883Z,84.03
2022-12-15T19:48:00.528Z,85.37
2022-12-15T19:50:36.595Z,81.90
2022-12-15T19:53:10.974Z,76.10
2022-12-15T19:55:38.607Z,70.43
2022-12-15T19:58:31.734Z,80.93
2022-12-15T20:01:14.802Z,82.73
2022-12-15T20:03:43.601Z,74.00
2022-12-15T20:06:31.809Z,80.23
2022-12-15T20:08:59.908Z,71.60
2022-12-15T20:11:29.882Z,76.93
2022-12-15T20:13:57.453Z,79.80
2022-12-15T20:16:25.235Z,80.77
2022-12-15T20:18:54.896Z,72.13
2022-12-15T20:21:24.787Z,70.33
2022-12-15T20:23:57.830Z,80.87
2022-12-15T20:26:25.830Z,70.67
2022-12-15T20:28:53.460Z,76.70
2022-12-15T20:31:22.930Z,73.43
2022-12-15T20:33:51.885Z,71.60
2022-12-15T20:36:25.006Z,85.27
2022-12-15T20:38:52.766Z,71.83
2022-12-15T20:41:23.339Z,78.23
2022-12-15T20:43:51.221Z,73.27
2022-12-15T20:46:20.828Z,74.60
2022-12-15T20:48:51.813Z,79.83
2022-12-15T20:51:30.438Z,63.10
2022-12-15T20:54:02.316Z,72.57
2022-12-15T20:56:29.484Z,74.63
2022-12-15T20:58:57.959Z,78.23
2022-12-15T21:01:28.383Z,79.73
2022-12-15T21:03:57.647Z,67.80
2022-12-15T21:06:26.151Z,75.40
2022-12-15T21:08:53.749Z,68.57
2022-12-15T21:11:27.192Z,67.17
2022-12-15T21:13:56.749Z,67.53
2022-12-15T21:16:26.977Z,74.20
2022-12-15T21:19:19.225Z,75.67
2022-12-15T21:21:46.762Z,74.33
2022-12-15T21:24:34.127Z,73.30
2022-12-15T21:27:01.621Z,78.73
2022-12-15T21:29:29.060Z,70.73
2022-12-15T21:31:55.933Z,83.20
2022-12-15T21:34:23.214Z,69.47
2022-12-15T21:36:54.970Z,69.57
2022-12-15T21:39:30.008Z,70.20
2022-12-15T21:42:05.633Z,69.73
2022-12-15T21:44:32.521Z,67.90
2022-12-15T21:46:59.541Z,77.03
2022-12-15T21:49:26.557Z,75.53
2022-12-15T21:51:58.036Z,70.53
2022-12-15T21:54:31.446Z,67.37
2022-12-15T21:57:00.089Z,70.13
2022-12-15T21:59:31.666Z,73.27
2022-12-15T22:02:01.112Z,69.10
2022-12-15T22:04:34.242Z,66.93
2022-12-15T22:07:01.834Z,69.07
2022-12-15T22:09:29.056Z,72.90
2022-12-15T22:11:56.666Z,69.13
2022-12-15T22:14:34.629Z,75.73
2022-12-15T22:17:11.819Z,72.53
2022-12-15T22:19:38.875Z,71.30
2022-12-15T22:22:05.816Z,68.93
2022-12-15T22:24:32.678Z,83.57
2022-12-15T22:26:59.611Z,71.07
2022-12-15T22:29:27.790Z,72.63
2022-12-15T22:31:55.376Z,69.37
2022-12-15T22:34:24.596Z,61.83
2022-12-15T22:36:52.008Z,59.80
2022-12-15T22:39:20.699Z,65.20
2022-12-15T22:41:53.717Z,62.10
2022-12-15T22:44:27.342Z,63.00
2022-12-15T22:46:58.051Z,71.07
2022-12-15T22:49:35.424Z,66.00
2022-12-15T22:52:02.928Z,65.87
2022-12-15T22:54:31.923Z,69.57
2022-12-15T22:57:05.296Z,58.77
2022-12-15T22:59:43.777Z,68.07
2022-12-15T23:02:11.412Z,68.07
2022-12-15T23:04:38.189Z,64.10
2022-12-15T23:07:10.061Z,69.33
2022-12-15T23:09:37.437Z,62.87
2022-12-15T23:12:04.499Z,63.23
2022-12-15T23:14:51.483Z,62.97
2022-12-15T23:17:18.575Z,61.20
2022-12-15T23:19:46.203Z,55.60
2022-12-15T23:22:13.922Z,68.20
2022-12-15T23:24:40.893Z,65.30
2022-12-15T23:27:11.468Z,67.03
2022-12-15T23:29:38.463Z,63.00
2022-12-15T23:32:06.095Z,58.07
2022-12-15T23:34:33.114Z,62.90
2022-12-15T23:37:00.896Z,63.33
2022-12-15T23:39:27.877Z,65.47
2022-12-15T23:41:54.689Z,54.77
2022-12-15T23:44:21.693Z,68.57
2022-12-15T23:46:48.633Z,64.33
2022-12-15T23:49:15.539Z,59.93
2022-12-15T23:51:42.395Z,67.33
2022-12-15T23:54:10.380Z,61.80
2022-12-15T23:56:39.359Z,56.60
2022-12-15T23:59:06.268Z,59.90
